sensor_id;sensor_type;location;lat;lon;timestamp;P1;durP1;ratioP1;P2;durP2;ratioP2
16288;SDS011;26089;43.538;5.250;2023-03-14T00:02:24;1.07;;;1.07;;
16288;SDS011;26089;43.538;5.250;2023-03-14T00:04:53;1.00;;;0.90;;
16288;SDS011;26089;43.538;5.250;2023-03-14T00:07:21;0.80;;;0.80;;
16288;SDS011;26089;43.538;5.250;2023-03-14T00:09:49;0.90;;;0.90;;
16288;SDS011;26089;43.538;5.250;2023-03-14T00:12:16;0.83;;;0.83;;
16288;SDS011;26089;43.538;5.250;2023-03-14T00:14:43;1.73;;;1.30;;
16288;SDS011;26089;43.538;5.250;2023-03-14T00:17:10;1.33;;;1.10;;
16288;SDS011;26089;43.538;5.250;2023-03-14T00:19:40;0.93;;;0.83;;
16288;SDS011;26089;43.538;5.250;2023-03-14T00:22:07;1.70;;;0.97;;
16288;SDS011;26089;43.538;5.250;2023-03-14T00:24:34;1.20;;;1.20;;
16288;SDS011;26089;43.538;5.250;2023-03-14T00:27:01;1.70;;;1.00;;
16288;SDS011;26089;43.538;5.250;2023-03-14T00:29:27;1.57;;;1.10;;
16288;SDS011;26089;43.538;5.250;2023-03-14T00:31:54;1.10;;;1.10;;
16288;SDS011;26089;43.538;5.250;2023-03-14T00:34:21;0.97;;;0.93;;
16288;SDS011;26089;43.538;5.250;2023-03-14T00:36:50;2.30;;;1.20;;
16288;SDS011;26089;43.538;5.250;2023-03-14T00:39:17;1.97;;;1.00;;
16288;SDS011;26089;43.538;5.250;2023-03-14T00:41:44;1.30;;;0.93;;
16288;SDS011;26089;43.538;5.250;2023-03-14T00:44:10;1.23;;;1.10;;
16288;SDS011;26089;43.538;5.250;2023-03-14T00:46:37;1.23;;;0.83;;
16288;SDS011;26089;43.538;5.250;2023-03-14T00:49:05;1.00;;;1.00;;
16288;SDS011;26089;43.538;5.250;2023-03-14T00:51:32;1.97;;;1.30;;
16288;SDS011;26089;43.538;5.250;2023-03-14T00:54:00;0.90;;;0.90;;
16288;SDS011;26089;43.538;5.250;2023-03-14T00:56:27;1.20;;;1.10;;
16288;SDS011;26089;43.538;5.250;2023-03-14T00:58:54;1.03;;;1.03;;
16288;SDS011;26089;43.538;5.250;2023-03-14T01:01:21;2.43;;;0.93;;
16288;SDS011;26089;43.538;5.250;2023-03-14T01:03:50;1.50;;;0.90;;
16288;SDS011;26089;43.538;5.250;2023-03-14T01:06:19;0.80;;;0.80;;
16288;SDS011;26089;43.538;5.250;2023-03-14T01:08:47;1.37;;;1.10;;
16288;SDS011;26089;43.538;5.250;2023-03-14T01:11:16;1.20;;;1.10;;
16288;SDS011;26089;43.538;5.250;2023-03-14T01:13:44;1.10;;;1.10;;
16288;SDS011;26089;43.538;5.250;2023-03-14T01:16:11;1.10;;;1.10;;
16288;SDS011;26089;43.538;5.250;2023-03-14T01:18:39;2.20;;;1.17;;
16288;SDS011;26089;43.538;5.250;2023-03-14T01:21:13;1.50;;;1.40;;
16288;SDS011;26089;43.538;5.250;2023-03-14T01:23:41;1.37;;;1.27;;
16288;SDS011;26089;43.538;5.250;2023-03-14T01:26:09;1.23;;;1.10;;
16288;SDS011;26089;43.538;5.250;2023-03-14T01:28:38;1.00;;;0.97;;
16288;SDS011;26089;43.538;5.250;2023-03-14T01:31:06;1.10;;;1.10;;
16288;SDS011;26089;43.538;5.250;2023-03-14T01:33:35;1.00;;;1.00;;
16288;SDS011;26089;43.538;5.250;2023-03-14T01:36:02;1.03;;;0.97;;
16288;SDS011;26089;43.538;5.250;2023-03-14T01:38:29;0.87;;;0.87;;
16288;SDS011;26089;43.538;5.250;2023-03-14T01:40:57;1.33;;;1.23;;
16288;SDS011;26089;43.538;5.250;2023-03-14T01:43:24;0.80;;;0.80;;
16288;SDS011;26089;43.538;5.250;2023-03-14T01:46:12;2.50;;;1.00;;
16288;SDS011;26089;43.538;5.250;2023-03-14T01:49:09;1.10;;;1.10;;
16288;SDS011;26089;43.538;5.250;2023-03-14T01:51:41;1.20;;;1.10;;
16288;SDS011;26089;43.538;5.250;2023-03-14T01:54:14;1.27;;;0.90;;
16288;SDS011;26089;43.538;5.250;2023-03-14T01:56:45;1.40;;;1.30;;
16288;SDS011;26089;43.538;5.250;2023-03-14T01:59:16;1.67;;;1.00;;
16288;SDS011;26089;43.538;5.250;2023-03-14T02:01:44;0.87;;;0.83;;
16288;SDS011;26089;43.538;5.250;2023-03-14T02:04:13;0.97;;;0.97;;
16288;SDS011;26089;43.538;5.250;2023-03-14T02:06:44;0.97;;;0.97;;
16288;SDS011;26089;43.538;5.250;2023-03-14T02:09:16;1.60;;;1.10;;
16288;SDS011;26089;43.538;5.250;2023-03-14T02:11:43;2.43;;;1.13;;
16288;SDS011;26089;43.538;5.250;2023-03-14T02:14:14;1.10;;;1.10;;
16288;SDS011;26089;43.538;5.250;2023-03-14T02:16:49;0.87;;;0.87;;
16288;SDS011;26089;43.538;5.250;2023-03-14T02:19:17;1.10;;;1.00;;
16288;SDS011;26089;43.538;5.250;2023-03-14T02:21:53;1.00;;;1.00;;
16288;SDS011;26089;43.538;5.250;2023-03-14T02:24:27;1.37;;;1.30;;
16288;SDS011;26089;43.538;5.250;2023-03-14T02:27:04;1.23;;;1.23;;
16288;SDS011;26089;43.538;5.250;2023-03-14T02:29:36;1.20;;;1.10;;
16288;SDS011;26089;43.538;5.250;2023-03-14T02:32:09;1.20;;;1.10;;
16288;SDS011;26089;43.538;5.250;2023-03-14T02:34:36;1.20;;;1.10;;
16288;SDS011;26089;43.538;5.250;2023-03-14T02:37:04;1.63;;;1.27;;
16288;SDS011;26089;43.538;5.250;2023-03-14T02:39:33;1.13;;;1.13;;
16288;SDS011;26089;43.538;5.250;2023-03-14T02:42:03;2.07;;;1.30;;
16288;SDS011;26089;43.538;5.250;2023-03-14T02:44:31;1.10;;;1.10;;
16288;SDS011;26089;43.538;5.250;2023-03-14T02:47:00;1.00;;;1.00;;
16288;SDS011;26089;43.538;5.250;2023-03-14T02:49:27;1.10;;;1.10;;
16288;SDS011;26089;43.538;5.250;2023-03-14T02:51:57;1.20;;;1.10;;
16288;SDS011;26089;43.538;5.250;2023-03-14T02:54:24;1.47;;;0.97;;
16288;SDS011;26089;43.538;5.250;2023-03-14T02:56:51;2.07;;;1.10;;
16288;SDS011;26089;43.538;5.250;2023-03-14T02:59:19;1.07;;;1.07;;
16288;SDS011;26089;43.538;5.250;2023-03-14T03:01:46;1.03;;;1.03;;
16288;SDS011;26089;43.538;5.250;2023-03-14T03:04:13;1.10;;;1.10;;
16288;SDS011;26089;43.538;5.250;2023-03-14T03:06:40;1.10;;;1.10;;
16288;SDS011;26089;43.538;5.250;2023-03-14T03:09:07;2.00;;;1.17;;
16288;SDS011;26089;43.538;5.250;2023-03-14T03:11:34;0.90;;;0.90;;
16288;SDS011;26089;43.538;5.250;2023-03-14T03:14:01;1.40;;;1.40;;
16288;SDS011;26089;43.538;5.250;2023-03-14T03:16:30;1.00;;;1.00;;
16288;SDS011;26089;43.538;5.250;2023-03-14T03:18:56;2.40;;;1.37;;
16288;SDS011;26089;43.538;5.250;2023-03-14T03:21:23;1.10;;;1.10;;
16288;SDS011;26089;43.538;5.250;2023-03-14T03:23:50;1.23;;;1.23;;
16288;SDS011;26089;43.538;5.250;2023-03-14T03:26:17;2.80;;;1.10;;
16288;SDS011;26089;43.538;5.250;2023-03-14T03:28:44;1.37;;;1.30;;
16288;SDS011;26089;43.538;5.250;2023-03-14T03:31:11;0.90;;;0.90;;
16288;SDS011;26089;43.538;5.250;2023-03-14T03:33:40;1.10;;;1.10;;
16288;SDS011;26089;43.538;5.250;2023-03-14T03:36:07;1.33;;;1.00;;
16288;SDS011;26089;43.538;5.250;2023-03-14T03:38:35;1.67;;;1.10;;
16288;SDS011;26089;43.538;5.250;2023-03-14T03:41:02;1.30;;;1.30;;
16288;SDS011;26089;43.538;5.250;2023-03-14T03:43:31;2.07;;;1.30;;
16288;SDS011;26089;43.538;5.250;2023-03-14T03:45:58;2.53;;;1.10;;
16288;SDS011;26089;43.538;5.250;2023-03-14T03:48:28;2.80;;;1.30;;
16288;SDS011;26089;43.538;5.250;2023-03-14T03:50:56;1.80;;;1.30;;
16288;SDS011;26089;43.538;5.250;2023-03-14T03:53:23;1.30;;;1.10;;
16288;SDS011;26089;43.538;5.250;2023-03-14T03:55:50;2.43;;;1.13;;
16288;SDS011;26089;43.538;5.250;2023-03-14T03:58:17;1.43;;;1.33;;
16288;SDS011;26089;43.538;5.250;2023-03-14T04:00:45;1.30;;;1.20;;
16288;SDS011;26089;43.538;5.250;2023-03-14T04:03:13;1.63;;;1.10;;
16288;SDS011;26089;43.538;5.250;2023-03-14T04:05:39;1.20;;;1.10;;
16288;SDS011;26089;43.538;5.250;2023-03-14T04:08:08;1.40;;;1.30;;
16288;SDS011;26089;43.538;5.250;2023-03-14T04:10:35;2.13;;;1.40;;
16288;SDS011;26089;43.538;5.250;2023-03-14T04:13:02;2.53;;;1.30;;
16288;SDS011;26089;43.538;5.250;2023-03-14T04:15:29;3.53;;;1.40;;
16288;SDS011;26089;43.538;5.250;2023-03-14T04:17:56;1.27;;;1.27;;
16288;SDS011;26089;43.538;5.250;2023-03-14T04:20:24;1.70;;;1.37;;
16288;SDS011;26089;43.538;5.250;2023-03-14T04:22:51;2.23;;;1.23;;
16288;SDS011;26089;43.538;5.250;2023-03-14T04:25:19;1.30;;;1.20;;
16288;SDS011;26089;43.538;5.250;2023-03-14T04:27:46;4.47;;;1.33;;
16288;SDS011;26089;43.538;5.250;2023-03-14T04:30:13;2.00;;;1.63;;
16288;SDS011;26089;43.538;5.250;2023-03-14T04:32:40;1.87;;;1.40;;
16288;SDS011;26089;43.538;5.250;2023-03-14T04:35:07;3.93;;;1.30;;
16288;SDS011;26089;43.538;5.250;2023-03-14T04:37:34;1.30;;;1.20;;
16288;SDS011;26089;43.538;5.250;2023-03-14T04:40:02;5.73;;;1.70;;
16288;SDS011;26089;43.538;5.250;2023-03-14T04:42:32;3.23;;;1.70;;
16288;SDS011;26089;43.538;5.250;2023-03-14T04:44:59;1.50;;;1.30;;
16288;SDS011;26089;43.538;5.250;2023-03-14T04:47:26;2.00;;;1.60;;
16288;SDS011;26089;43.538;5.250;2023-03-14T04:49:53;5.13;;;1.80;;
16288;SDS011;26089;43.538;5.250;2023-03-14T04:52:20;3.40;;;1.60;;
16288;SDS011;26089;43.538;5.250;2023-03-14T04:54:47;7.13;;;1.70;;
16288;SDS011;26089;43.538;5.250;2023-03-14T04:57:14;2.23;;;1.53;;
16288;SDS011;26089;43.538;5.250;2023-03-14T04:59:43;2.03;;;1.60;;
16288;SDS011;26089;43.538;5.250;2023-03-14T05:02:09;1.87;;;1.30;;
16288;SDS011;26089;43.538;5.250;2023-03-14T05:04:36;4.73;;;1.70;;
16288;SDS011;26089;43.538;5.250;2023-03-14T05:07:03;3.60;;;2.10;;
16288;SDS011;26089;43.538;5.250;2023-03-14T05:09:30;5.93;;;1.70;;
16288;SDS011;26089;43.538;5.250;2023-03-14T05:11:57;4.37;;;1.60;;
16288;SDS011;26089;43.538;5.250;2023-03-14T05:14:24;2.13;;;1.30;;
16288;SDS011;26089;43.538;5.250;2023-03-14T05:16:53;3.10;;;1.90;;
16288;SDS011;26089;43.538;5.250;2023-03-14T05:19:19;4.53;;;1.43;;
16288;SDS011;26089;43.538;5.250;2023-03-14T05:21:46;6.33;;;1.60;;
16288;SDS011;26089;43.538;5.250;2023-03-14T05:24:13;3.23;;;1.70;;
16288;SDS011;26089;43.538;5.250;2023-03-14T05:26:40;3.50;;;1.40;;
16288;SDS011;26089;43.538;5.250;2023-03-14T05:29:07;3.23;;;1.37;;
16288;SDS011;26089;43.538;5.250;2023-03-14T05:31:34;3.87;;;1.57;;
16288;SDS011;26089;43.538;5.250;2023-03-14T05:34:03;6.20;;;1.70;;
16288;SDS011;26089;43.538;5.250;2023-03-14T05:36:29;3.20;;;1.40;;
16288;SDS011;26089;43.538;5.250;2023-03-14T05:38:56;5.80;;;1.50;;
16288;SDS011;26089;43.538;5.250;2023-03-14T05:41:23;3.13;;;1.50;;
16288;SDS011;26089;43.538;5.250;2023-03-14T05:43:50;4.17;;;1.50;;
16288;SDS011;26089;43.538;5.250;2023-03-14T05:46:17;5.60;;;1.40;;
16288;SDS011;26089;43.538;5.250;2023-03-14T05:48:44;3.47;;;1.80;;
16288;SDS011;26089;43.538;5.250;2023-03-14T05:51:12;2.40;;;1.33;;
16288;SDS011;26089;43.538;5.250;2023-03-14T05:53:39;3.93;;;1.53;;
16288;SDS011;26089;43.538;5.250;2023-03-14T05:56:07;4.73;;;1.50;;
16288;SDS011;26089;43.538;5.250;2023-03-14T05:58:34;3.80;;;1.70;;
16288;SDS011;26089;43.538;5.250;2023-03-14T06:01:01;5.10;;;1.53;;
16288;SDS011;26089;43.538;5.250;2023-03-14T06:03:29;5.30;;;1.43;;
16288;SDS011;26089;43.538;5.250;2023-03-14T06:05:56;3.43;;;2.00;;
16288;SDS011;26089;43.538;5.250;2023-03-14T06:08:24;5.37;;;1.60;;
16288;SDS011;26089;43.538;5.250;2023-03-14T06:10:51;3.57;;;1.73;;
16288;SDS011;26089;43.538;5.250;2023-03-14T06:13:19;6.57;;;2.03;;
16288;SDS011;26089;43.538;5.250;2023-03-14T06:15:46;2.87;;;1.57;;
16288;SDS011;26089;43.538;5.250;2023-03-14T06:18:13;5.03;;;1.60;;
16288;SDS011;26089;43.538;5.250;2023-03-14T06:20:40;6.20;;;2.30;;
16288;SDS011;26089;43.538;5.250;2023-03-14T06:23:07;5.60;;;2.90;;
16288;SDS011;26089;43.538;5.250;2023-03-14T06:25:36;9.03;;;2.33;;
16288;SDS011;26089;43.538;5.250;2023-03-14T06:28:03;4.70;;;1.60;;
16288;SDS011;26089;43.538;5.250;2023-03-14T06:30:30;4.17;;;1.80;;
16288;SDS011;26089;43.538;5.250;2023-03-14T06:32:57;3.20;;;2.00;;
16288;SDS011;26089;43.538;5.250;2023-03-14T06:35:24;2.37;;;1.80;;
16288;SDS011;26089;43.538;5.250;2023-03-14T06:37:51;4.87;;;2.00;;
16288;SDS011;26089;43.538;5.250;2023-03-14T06:40:18;5.07;;;2.30;;
16288;SDS011;26089;43.538;5.250;2023-03-14T06:42:47;4.00;;;2.20;;
16288;SDS011;26089;43.538;5.250;2023-03-14T06:45:14;3.17;;;1.90;;
16288;SDS011;26089;43.538;5.250;2023-03-14T06:47:41;3.43;;;2.57;;
16288;SDS011;26089;43.538;5.250;2023-03-14T06:50:09;2.97;;;2.00;;
16288;SDS011;26089;43.538;5.250;2023-03-14T06:52:36;3.27;;;1.87;;
16288;SDS011;26089;43.538;5.250;2023-03-14T06:55:06;4.27;;;2.00;;
16288;SDS011;26089;43.538;5.250;2023-03-14T06:57:34;4.83;;;1.93;;
16288;SDS011;26089;43.538;5.250;2023-03-14T07:00:02;6.33;;;2.07;;
16288;SDS011;26089;43.538;5.250;2023-03-14T07:02:30;3.67;;;2.10;;
16288;SDS011;26089;43.538;5.250;2023-03-14T07:04:57;2.67;;;1.43;;
16288;SDS011;26089;43.538;5.250;2023-03-14T07:07:25;7.60;;;1.83;;
16288;SDS011;26089;43.538;5.250;2023-03-14T07:09:52;6.17;;;1.90;;
16288;SDS011;26089;43.538;5.250;2023-03-14T07:12:19;4.50;;;1.57;;
16288;SDS011;26089;43.538;5.250;2023-03-14T07:14:46;3.83;;;1.70;;
16288;SDS011;26089;43.538;5.250;2023-03-14T07:17:14;4.10;;;1.80;;
16288;SDS011;26089;43.538;5.250;2023-03-14T07:19:41;4.60;;;1.50;;
16288;SDS011;26089;43.538;5.250;2023-03-14T07:22:08;5.33;;;2.40;;
16288;SDS011;26089;43.538;5.250;2023-03-14T07:24:35;4.90;;;1.83;;
16288;SDS011;26089;43.538;5.250;2023-03-14T07:27:02;4.27;;;1.60;;
16288;SDS011;26089;43.538;5.250;2023-03-14T07:29:29;5.80;;;2.20;;
16288;SDS011;26089;43.538;5.250;2023-03-14T07:31:56;4.83;;;2.33;;
16288;SDS011;26089;43.538;5.250;2023-03-14T07:34:24;5.80;;;1.70;;
16288;SDS011;26089;43.538;5.250;2023-03-14T07:36:51;3.10;;;1.53;;
16288;SDS011;26089;43.538;5.250;2023-03-14T07:39:18;2.73;;;1.80;;
16288;SDS011;26089;43.538;5.250;2023-03-14T07:41:45;5.73;;;2.60;;
16288;SDS011;26089;43.538;5.250;2023-03-14T07:44:12;2.50;;;1.47;;
16288;SDS011;26089;43.538;5.250;2023-03-14T07:46:39;4.30;;;1.80;;
16288;SDS011;26089;43.538;5.250;2023-03-14T07:49:06;5.27;;;1.93;;
16288;SDS011;26089;43.538;5.250;2023-03-14T07:51:34;3.33;;;1.70;;
16288;SDS011;26089;43.538;5.250;2023-03-14T07:54:01;4.47;;;1.97;;
16288;SDS011;26089;43.538;5.250;2023-03-14T07:56:28;5.23;;;2.20;;
16288;SDS011;26089;43.538;5.250;2023-03-14T07:58:56;6.53;;;2.10;;
16288;SDS011;26089;43.538;5.250;2023-03-14T08:01:23;9.13;;;1.70;;
16288;SDS011;26089;43.538;5.250;2023-03-14T08:03:50;6.57;;;2.13;;
16288;SDS011;26089;43.538;5.250;2023-03-14T08:06:17;6.53;;;2.40;;
16288;SDS011;26089;43.538;5.250;2023-03-14T08:08:45;8.30;;;1.63;;
16288;SDS011;26089;43.538;5.250;2023-03-14T08:11:12;7.17;;;1.97;;
16288;SDS011;26089;43.538;5.250;2023-03-14T08:13:39;7.60;;;2.30;;
16288;SDS011;26089;43.538;5.250;2023-03-14T08:16:07;7.47;;;2.23;;
16288;SDS011;26089;43.538;5.250;2023-03-14T08:18:34;7.90;;;2.83;;
16288;SDS011;26089;43.538;5.250;2023-03-14T08:21:01;6.40;;;2.30;;
16288;SDS011;26089;43.538;5.250;2023-03-14T08:23:28;5.10;;;2.40;;
16288;SDS011;26089;43.538;5.250;2023-03-14T08:25:57;9.23;;;2.07;;
16288;SDS011;26089;43.538;5.250;2023-03-14T08:28:24;7.03;;;2.20;;
16288;SDS011;26089;43.538;5.250;2023-03-14T08:30:55;7.20;;;2.00;;
16288;SDS011;26089;43.538;5.250;2023-03-14T08:33:23;7.90;;;1.90;;
16288;SDS011;26089;43.538;5.250;2023-03-14T08:35:51;6.77;;;1.47;;
16288;SDS011;26089;43.538;5.250;2023-03-14T08:38:18;5.60;;;1.60;;
16288;SDS011;26089;43.538;5.250;2023-03-14T08:40:45;4.63;;;1.60;;
16288;SDS011;26089;43.538;5.250;2023-03-14T08:43:14;3.83;;;1.40;;
16288;SDS011;26089;43.538;5.250;2023-03-14T08:45:41;1.67;;;1.20;;
16288;SDS011;26089;43.538;5.250;2023-03-14T08:48:08;5.80;;;1.30;;
16288;SDS011;26089;43.538;5.250;2023-03-14T08:50:35;2.33;;;1.40;;
16288;SDS011;26089;43.538;5.250;2023-03-14T08:53:02;7.33;;;1.30;;
16288;SDS011;26089;43.538;5.250;2023-03-14T08:55:29;3.47;;;1.47;;
16288;SDS011;26089;43.538;5.250;2023-03-14T08:57:56;3.33;;;1.60;;
16288;SDS011;26089;43.538;5.250;2023-03-14T09:00:24;3.17;;;1.30;;
16288;SDS011;26089;43.538;5.250;2023-03-14T09:02:51;3.63;;;1.17;;
16288;SDS011;26089;43.538;5.250;2023-03-14T09:05:18;3.80;;;1.40;;
16288;SDS011;26089;43.538;5.250;2023-03-14T09:07:45;3.07;;;1.30;;
16288;SDS011;26089;43.538;5.250;2023-03-14T09:10:12;5.83;;;1.17;;
16288;SDS011;26089;43.538;5.250;2023-03-14T09:12:39;3.90;;;1.27;;
16288;SDS011;26089;43.538;5.250;2023-03-14T09:15:07;3.00;;;1.07;;
16288;SDS011;26089;43.538;5.250;2023-03-14T09:17:35;1.63;;;1.03;;
16288;SDS011;26089;43.538;5.250;2023-03-14T09:20:03;3.13;;;1.20;;
16288;SDS011;26089;43.538;5.250;2023-03-14T09:22:32;2.23;;;1.10;;
16288;SDS011;26089;43.538;5.250;2023-03-14T09:25:00;2.57;;;1.50;;
16288;SDS011;26089;43.538;5.250;2023-03-14T09:27:27;3.50;;;1.23;;
16288;SDS011;26089;43.538;5.250;2023-03-14T09:29:54;2.07;;;1.60;;
16288;SDS011;26089;43.538;5.250;2023-03-14T09:32:21;2.33;;;1.00;;
16288;SDS011;26089;43.538;5.250;2023-03-14T09:34:50;1.47;;;1.10;;
16288;SDS011;26089;43.538;5.250;2023-03-14T09:37:17;3.83;;;1.03;;
16288;SDS011;26089;43.538;5.250;2023-03-14T09:39:45;1.90;;;1.10;;
16288;SDS011;26089;43.538;5.250;2023-03-14T09:42:13;2.37;;;1.00;;
16288;SDS011;26089;43.538;5.250;2023-03-14T09:44:45;3.17;;;1.20;;
16288;SDS011;26089;43.538;5.250;2023-03-14T09:47:20;1.20;;;1.10;;
16288;SDS011;26089;43.538;5.250;2023-03-14T09:49:49;1.80;;;0.90;;
16288;SDS011;26089;43.538;5.250;2023-03-14T09:52:17;2.10;;;1.00;;
16288;SDS011;26089;43.538;5.250;2023-03-14T09:54:47;1.67;;;0.77;;
16288;SDS011;26089;43.538;5.250;2023-03-14T09:57:17;1.30;;;1.13;;
16288;SDS011;26089;43.538;5.250;2023-03-14T09:59:46;2.53;;;0.90;;
16288;SDS011;26089;43.538;5.250;2023-03-14T10:02:16;5.73;;;1.27;;
16288;SDS011;26089;43.538;5.250;2023-03-14T10:04:45;1.30;;;0.87;;
16288;SDS011;26089;43.538;5.250;2023-03-14T10:07:14;1.03;;;0.90;;
16288;SDS011;26089;43.538;5.250;2023-03-14T10:09:44;1.70;;;0.90;;
16288;SDS011;26089;43.538;5.250;2023-03-14T10:12:13;1.10;;;1.00;;
16288;SDS011;26089;43.538;5.250;2023-03-14T10:14:45;2.60;;;1.00;;
16288;SDS011;26089;43.538;5.250;2023-03-14T10:17:14;1.23;;;0.97;;
16288;SDS011;26089;43.538;5.250;2023-03-14T10:19:52;2.60;;;1.00;;
16288;SDS011;26089;43.538;5.250;2023-03-14T10:22:22;1.83;;;1.10;;
16288;SDS011;26089;43.538;5.250;2023-03-14T10:24:52;1.20;;;1.10;;
16288;SDS011;26089;43.538;5.250;2023-03-14T10:27:23;0.80;;;0.80;;
16288;SDS011;26089;43.538;5.250;2023-03-14T10:29:55;2.80;;;1.30;;
16288;SDS011;26089;43.538;5.250;2023-03-14T10:32:27;1.00;;;1.00;;
16288;SDS011;26089;43.538;5.250;2023-03-14T10:35:05;1.17;;;1.10;;
16288;SDS011;26089;43.538;5.250;2023-03-14T10:37:36;2.20;;;1.10;;
16288;SDS011;26089;43.538;5.250;2023-03-14T10:40:16;3.07;;;1.00;;
16288;SDS011;26089;43.538;5.250;2023-03-14T10:42:45;3.63;;;1.00;;
16288;SDS011;26089;43.538;5.250;2023-03-14T10:45:22;2.20;;;1.17;;
16288;SDS011;26089;43.538;5.250;2023-03-14T10:47:57;3.60;;;1.00;;
16288;SDS011;26089;43.538;5.250;2023-03-14T10:50:27;1.17;;;0.80;;
16288;SDS011;26089;43.538;5.250;2023-03-14T10:52:56;1.40;;;1.33;;
16288;SDS011;26089;43.538;5.250;2023-03-14T10:55:39;1.30;;;1.20;;
16288;SDS011;26089;43.538;5.250;2023-03-14T10:58:16;1.43;;;0.87;;
16288;SDS011;26089;43.538;5.250;2023-03-14T11:00:50;1.17;;;1.00;;
16288;SDS011;26089;43.538;5.250;2023-03-14T11:03:23;2.43;;;0.90;;
16288;SDS011;26089;43.538;5.250;2023-03-14T11:05:53;0.87;;;0.87;;
16288;SDS011;26089;43.538;5.250;2023-03-14T11:08:27;1.77;;;1.27;;
16288;SDS011;26089;43.538;5.250;2023-03-14T11:11:02;2.43;;;1.30;;
16288;SDS011;26089;43.538;5.250;2023-03-14T11:13:42;1.50;;;1.20;;
16288;SDS011;26089;43.538;5.250;2023-03-14T11:16:19;1.70;;;1.03;;
16288;SDS011;26089;43.538;5.250;2023-03-14T11:19:10;1.30;;;1.20;;
16288;SDS011;26089;43.538;5.250;2023-03-14T11:21:50;2.00;;;1.77;;
16288;SDS011;26089;43.538;5.250;2023-03-14T11:24:27;2.50;;;1.00;;
16288;SDS011;26089;43.538;5.250;2023-03-14T11:27:05;2.43;;;1.40;;
16288;SDS011;26089;43.538;5.250;2023-03-14T11:29:40;2.40;;;0.80;;
16288;SDS011;26089;43.538;5.250;2023-03-14T11:32:13;1.43;;;1.23;;
16288;SDS011;26089;43.538;5.250;2023-03-14T11:34:47;1.03;;;0.93;;
16288;SDS011;26089;43.538;5.250;2023-03-14T11:37:21;2.10;;;1.00;;
16288;SDS011;26089;43.538;5.250;2023-03-14T11:39:56;1.97;;;0.80;;
16288;SDS011;26089;43.538;5.250;2023-03-14T11:42:27;1.97;;;1.10;;
16288;SDS011;26089;43.538;5.250;2023-03-14T11:44:55;1.83;;;0.90;;
16288;SDS011;26089;43.538;5.250;2023-03-14T11:47:24;2.27;;;1.13;;
16288;SDS011;26089;43.538;5.250;2023-03-14T11:49:56;2.70;;;1.63;;
16288;SDS011;26089;43.538;5.250;2023-03-14T11:52:27;0.83;;;0.80;;
16288;SDS011;26089;43.538;5.250;2023-03-14T11:55:01;2.23;;;0.80;;
16288;SDS011;26089;43.538;5.250;2023-03-14T11:57:33;0.73;;;0.73;;
16288;SDS011;26089;43.538;5.250;2023-03-14T12:00:02;1.23;;;0.70;;
16288;SDS011;26089;43.538;5.250;2023-03-14T12:02:40;0.97;;;0.93;;
16288;SDS011;26089;43.538;5.250;2023-03-14T12:05:30;0.83;;;0.67;;
16288;SDS011;26089;43.538;5.250;2023-03-14T12:08:16;1.50;;;0.63;;
16288;SDS011;26089;43.538;5.250;2023-03-14T12:10:53;1.00;;;0.80;;
16288;SDS011;26089;43.538;5.250;2023-03-14T12:13:22;2.27;;;1.07;;
16288;SDS011;26089;43.538;5.250;2023-03-14T12:15:56;1.70;;;0.80;;
16288;SDS011;26089;43.538;5.250;2023-03-14T12:18:26;1.50;;;1.00;;
16288;SDS011;26089;43.538;5.250;2023-03-14T12:20:56;1.00;;;0.80;;
16288;SDS011;26089;43.538;5.250;2023-03-14T12:23:24;1.10;;;0.90;;
16288;SDS011;26089;43.538;5.250;2023-03-14T12:26:08;1.10;;;0.80;;
16288;SDS011;26089;43.538;5.250;2023-03-14T12:28:42;1.57;;;0.90;;
16288;SDS011;26089;43.538;5.250;2023-03-14T12:34:03;1.07;;;0.87;;
16288;SDS011;26089;43.538;5.250;2023-03-14T12:37:01;1.53;;;0.80;;
16288;SDS011;26089;43.538;5.250;2023-03-14T12:39:40;1.53;;;1.00;;
16288;SDS011;26089;43.538;5.250;2023-03-14T12:42:17;0.70;;;0.70;;
16288;SDS011;26089;43.538;5.250;2023-03-14T12:45:13;0.97;;;0.60;;
16288;SDS011;26089;43.538;5.250;2023-03-14T12:50:43;0.60;;;0.60;;
16288;SDS011;26089;43.538;5.250;2023-03-14T12:53:31;0.80;;;0.70;;
16288;SDS011;26089;43.538;5.250;2023-03-14T12:56:24;2.57;;;1.10;;
16288;SDS011;26089;43.538;5.250;2023-03-14T12:59:01;1.30;;;0.93;;
16288;SDS011;26089;43.538;5.250;2023-03-14T13:01:47;0.73;;;0.73;;
16288;SDS011;26089;43.538;5.250;2023-03-14T13:04:25;1.30;;;0.60;;
16288;SDS011;26089;43.538;5.250;2023-03-14T13:06:54;0.93;;;0.80;;
16288;SDS011;26089;43.538;5.250;2023-03-14T13:09:34;3.37;;;1.20;;
16288;SDS011;26089;43.538;5.250;2023-03-14T13:12:16;0.87;;;0.80;;
16288;SDS011;26089;43.538;5.250;2023-03-14T13:14:46;1.53;;;0.97;;
16288;SDS011;26089;43.538;5.250;2023-03-14T13:17:19;3.60;;;1.47;;
16288;SDS011;26089;43.538;5.250;2023-03-14T13:19:50;1.23;;;1.03;;
16288;SDS011;26089;43.538;5.250;2023-03-14T13:22:23;1.13;;;0.70;;
16288;SDS011;26089;43.538;5.250;2023-03-14T13:24:59;1.03;;;0.90;;
16288;SDS011;26089;43.538;5.250;2023-03-14T13:27:30;0.97;;;0.80;;
16288;SDS011;26089;43.538;5.250;2023-03-14T13:30:11;1.17;;;0.63;;
16288;SDS011;26089;43.538;5.250;2023-03-14T13:32:44;0.83;;;0.70;;
16288;SDS011;26089;43.538;5.250;2023-03-14T13:35:19;2.17;;;0.90;;
16288;SDS011;26089;43.538;5.250;2023-03-14T13:37:51;1.63;;;0.80;;
16288;SDS011;26089;43.538;5.250;2023-03-14T13:40:24;2.30;;;1.13;;
16288;SDS011;26089;43.538;5.250;2023-03-14T13:43:05;0.97;;;0.70;;
16288;SDS011;26089;43.538;5.250;2023-03-14T13:45:49;1.20;;;0.80;;
16288;SDS011;26089;43.538;5.250;2023-03-14T13:48:18;1.10;;;0.90;;
16288;SDS011;26089;43.538;5.250;2023-03-14T13:50:46;1.30;;;0.80;;
16288;SDS011;26089;43.538;5.250;2023-03-14T13:53:17;1.73;;;0.93;;
16288;SDS011;26089;43.538;5.250;2023-03-14T13:55:44;1.57;;;0.97;;
16288;SDS011;26089;43.538;5.250;2023-03-14T13:58:21;1.23;;;1.13;;
16288;SDS011;26089;43.538;5.250;2023-03-14T14:00:58;1.60;;;1.10;;
16288;SDS011;26089;43.538;5.250;2023-03-14T14:03:29;0.80;;;0.80;;
16288;SDS011;26089;43.538;5.250;2023-03-14T14:05:59;1.70;;;0.77;;
16288;SDS011;26089;43.538;5.250;2023-03-14T14:08:26;2.50;;;0.83;;
16288;SDS011;26089;43.538;5.250;2023-03-14T14:10:54;1.10;;;1.00;;
16288;SDS011;26089;43.538;5.250;2023-03-14T14:13:25;2.00;;;1.13;;
16288;SDS011;26089;43.538;5.250;2023-03-14T14:15:58;2.43;;;0.90;;
16288;SDS011;26089;43.538;5.250;2023-03-14T14:18:28;2.53;;;1.30;;
16288;SDS011;26089;43.538;5.250;2023-03-14T14:20:57;1.97;;;1.03;;
16288;SDS011;26089;43.538;5.250;2023-03-14T14:23:25;1.50;;;0.90;;
16288;SDS011;26089;43.538;5.250;2023-03-14T14:25:54;1.73;;;0.70;;
16288;SDS011;26089;43.538;5.250;2023-03-14T14:28:23;3.03;;;0.90;;
16288;SDS011;26089;43.538;5.250;2023-03-14T14:31:05;0.83;;;0.70;;
16288;SDS011;26089;43.538;5.250;2023-03-14T14:33:45;0.90;;;0.60;;
16288;SDS011;26089;43.538;5.250;2023-03-14T14:36:20;1.00;;;0.90;;
16288;SDS011;26089;43.538;5.250;2023-03-14T14:38:52;4.47;;;1.00;;
16288;SDS011;26089;43.538;5.250;2023-03-14T14:41:26;3.33;;;1.00;;
16288;SDS011;26089;43.538;5.250;2023-03-14T14:43:54;2.10;;;0.90;;
16288;SDS011;26089;43.538;5.250;2023-03-14T14:46:25;2.63;;;0.77;;
16288;SDS011;26089;43.538;5.250;2023-03-14T14:48:54;2.33;;;1.20;;
16288;SDS011;26089;43.538;5.250;2023-03-14T14:51:24;1.00;;;0.73;;
16288;SDS011;26089;43.538;5.250;2023-03-14T14:54:01;1.87;;;0.90;;
16288;SDS011;26089;43.538;5.250;2023-03-14T14:56:34;1.53;;;0.97;;
16288;SDS011;26089;43.538;5.250;2023-03-14T14:59:02;2.57;;;1.10;;
16288;SDS011;26089;43.538;5.250;2023-03-14T15:01:34;1.37;;;0.90;;
16288;SDS011;26089;43.538;5.250;2023-03-14T15:04:02;1.00;;;0.90;;
16288;SDS011;26089;43.538;5.250;2023-03-14T15:06:36;2.57;;;1.10;;
16288;SDS011;26089;43.538;5.250;2023-03-14T15:09:04;4.30;;;1.00;;
16288;SDS011;26089;43.538;5.250;2023-03-14T15:11:31;1.57;;;0.80;;